Darien, GA (31305)

4:07 AM EDT on August 01, 2014 (GMT -0400)
Country Walk (KGABRUNS2) Elev 30 ft | 31.27 °N, 81.48 °W | Change Station

Current weather conditions updated 7 seconds ago

Clear
Clear
76.3 °F
Feels Like 76 °F
N
0.0
Wind Variable Wind from ESE
Gusts 0.0 mph

Today is forecast to be Cooler than yesterday. Afternoon thunderstorms.

Today
High -- | Low -- °F
--% Chance of Precip.
Yesterday
High -- | Low -- °F
Precip. -- in
6:42 AM 8:21 PM
Waxing Crescent, 24% visible
Pressure 29.96 in
Visibility 10.0 miles
Clouds Clear
Heat Index 76 °F
Dew Point 74 °F
Humidity 92%
Rainfall 0.00 in
Snow Depth Not available.
UV 0.0 out of 12
Pollen 3.70 out of 12
Air Quality Not available.
Flu Activity Not available.
METAR KBQK 010755Z AUTO 00000KT 10SM CLR 25/22 A2996

More Conditions Fewer Conditions

Pressure 29.96 in
Visibility 10.0 miles
Clouds Clear
Heat Index 76 °F
Dew Point 74 °F
Humidity 92%
Rainfall 0.00 in
Snow Depth Not available.
UV 0.0 out of 12
Pollen 3.70 out of 12
Air Quality Not available.
Flu Activity Not available.
METAR KBQK 010755Z AUTO 00000KT 10SM CLR 25/22 A2996

More Conditions Fewer Conditions

10-Day Weather Forecast

Almanac

Astronomy

Aug. 01, 2014 Rise Set
Actual Time 6:42 AM EDT 8:21 PM EDT
Civil Twilight 6:15 AM EDT 8:47 PM EDT
Nautical Twilight 5:44 AM EDT 9:19 PM EDT
Astronomical Twilight 5:10 AM EDT 9:52 PM EDT
Moon 11:41 AM EDT 11:30 PM EDT
Length of Visible Light 14h 32m
Length of Day
13h 39m
Tomorrow will be 1m 26s shorter.
Waxing Crescent, 24% of the Moon is Illuminated
Today
Waxing Crescent
Aug 3
First Quarter
Aug 10
Full
Aug 17
Last Quarter
Aug 25
New

Today's Extremes

State Highs State Lows

Community

WunderPhotos

Upload Photos

1,739,522 photos uploaded!

Nearby

Snow Depth

Station Depth Elevation
No new snow has been reported.

Earthquake Activity

City Distance Mag. Time & Date
No recent earthquake activity has been reported nearby.
Minimum magnitude displayed is 2.5.

Coastal Water Temperatures

Place Temperature
No Stations Reporting

Nearby Weather Stations

Station Location Temp. Heat Index Dew Point Humidity Wind Precip. Elev Updated Type
MesoWest NERRS METEOROLOGICAL SITE ON SA, Sapelo Island, GA 82 °F 89 °F 75 °F 79% SSE  at  6 mph 0.00 in / hr 22 ft 3:00 AM EDT MADIS
Country Walk, Brunswick, GA 76.3 °F 76 °F 74 °F 92% ESE  at  0.0 mph 0.00 in / hr 30 ft 4:07 AM EDT Rapid Fire
Avalon Place, Brunswick, GA 78.4 °F 81 °F 75 °F 90% SE  at  0.0 mph 0.00 in / hr 43 ft 4:07 AM EDT Rapid Fire
RAWS STERLING GA, Brunswick, GA 72 °F - 70 °F 92% North  at  0 mph 0.00 in / hr 13 ft 3:04 AM EDT MADIS
Bloody Marsh, Saint Simons Island, GA 82.8 °F 89 °F 74 °F 74% SE  at  4.5 mph 0.00 in / hr 9 ft 4:07 AM EDT Rapid Fire

Show More Stations Show Fewer Stations